Terminal Aerodrome Forecast
Issued by NWS

Home | Current Version | Previous Version | Text Only | Print | Product List | Glossary On
Versions: 1 2 3 4 5 6 7 8 9 10 11 12 13 14 15 16 17 18 19
000
FTUS41 KCAR 161134
TAFFVE
TAF
KFVE 161134Z 1612/1712 32008KT P6SM SCT022 BKN070
     FM161500 32010KT P6SM SCT080
     FM170200 31010G18KT P6SM FEW150=

USA.gov is the U.S. government's official web portal to all federal, state and local government web resources and services.